sensor_id;sensor_type;location;lat;lon;timestamp;temperature;humidity
45339;DHT22;31071;51.478;5.710;2022-07-04T00:00:01;14.50;99.90
45339;DHT22;31071;51.478;5.710;2022-07-04T00:02:26;14.30;99.90
45339;DHT22;31071;51.478;5.710;2022-07-04T00:04:59;14.20;99.90
45339;DHT22;31071;51.478;5.710;2022-07-04T00:07:25;14.10;99.90
45339;DHT22;31071;51.478;5.710;2022-07-04T00:09:51;14.00;99.90
45339;DHT22;31071;51.478;5.710;2022-07-04T00:12:16;13.90;99.90
45339;DHT22;31071;51.478;5.710;2022-07-04T00:14:42;13.90;99.90
45339;DHT22;31071;51.478;5.710;2022-07-04T00:17:08;13.90;99.90
45339;DHT22;31071;51.478;5.710;2022-07-04T00:19:34;13.80;99.90
45339;DHT22;31071;51.478;5.710;2022-07-04T00:21:59;13.70;99.90
45339;DHT22;31071;51.478;5.710;2022-07-04T00:24:25;13.60;99.90
45339;DHT22;31071;51.478;5.710;2022-07-04T00:26:51;13.60;99.90
45339;DHT22;31071;51.478;5.710;2022-07-04T00:29:16;13.60;99.90
45339;DHT22;31071;51.478;5.710;2022-07-04T00:31:42;13.50;99.90
45339;DHT22;31071;51.478;5.710;2022-07-04T00:34:10;13.50;99.90
45339;DHT22;31071;51.478;5.710;2022-07-04T00:36:36;13.50;99.90
45339;DHT22;31071;51.478;5.710;2022-07-04T00:39:01;13.50;99.90
45339;DHT22;31071;51.478;5.710;2022-07-04T00:41:27;13.50;99.90
45339;DHT22;31071;51.478;5.710;2022-07-04T00:44:10;13.40;99.90
45339;DHT22;31071;51.478;5.710;2022-07-04T00:46:36;13.20;99.90
45339;DHT22;31071;51.478;5.710;2022-07-04T00:49:05;13.20;99.90
45339;DHT22;31071;51.478;5.710;2022-07-04T00:51:31;13.20;99.90
45339;DHT22;31071;51.478;5.710;2022-07-04T00:53:58;13.20;99.90
45339;DHT22;31071;51.478;5.710;2022-07-04T00:56:24;13.20;99.90
45339;DHT22;31071;51.478;5.710;2022-07-04T00:58:51;13.20;99.90
45339;DHT22;31071;51.478;5.710;2022-07-04T01:01:18;13.20;99.90
45339;DHT22;31071;51.478;5.710;2022-07-04T01:03:44;13.10;99.90
45339;DHT22;31071;51.478;5.710;2022-07-04T01:06:10;12.90;99.90
45339;DHT22;31071;51.478;5.710;2022-07-04T01:08:41;12.70;99.90
45339;DHT22;31071;51.478;5.710;2022-07-04T01:11:07;12.70;99.90
45339;DHT22;31071;51.478;5.710;2022-07-04T01:13:34;12.70;99.90
45339;DHT22;31071;51.478;5.710;2022-07-04T01:15:59;12.70;99.90
45339;DHT22;31071;51.478;5.710;2022-07-04T01:18:25;12.70;99.90
45339;DHT22;31071;51.478;5.710;2022-07-04T01:20:51;12.70;99.90
45339;DHT22;31071;51.478;5.710;2022-07-04T01:23:16;12.60;99.90
45339;DHT22;31071;51.478;5.710;2022-07-04T01:25:43;12.50;99.90
45339;DHT22;31071;51.478;5.710;2022-07-04T01:28:09;12.40;99.90
45339;DHT22;31071;51.478;5.710;2022-07-04T01:30:36;12.30;99.90
45339;DHT22;31071;51.478;5.710;2022-07-04T01:33:01;12.20;99.90
45339;DHT22;31071;51.478;5.710;2022-07-04T01:35:27;12.10;99.90
45339;DHT22;31071;51.478;5.710;2022-07-04T01:37:53;12.00;99.90
45339;DHT22;31071;51.478;5.710;2022-07-04T01:40:19;11.90;99.90
45339;DHT22;31071;51.478;5.710;2022-07-04T01:42:45;11.90;99.90
45339;DHT22;31071;51.478;5.710;2022-07-04T01:45:11;12.00;99.90
45339;DHT22;31071;51.478;5.710;2022-07-04T01:47:37;12.10;99.90
45339;DHT22;31071;51.478;5.710;2022-07-04T01:50:05;12.10;99.90
45339;DHT22;31071;51.478;5.710;2022-07-04T01:52:30;12.00;99.90
45339;DHT22;31071;51.478;5.710;2022-07-04T01:54:56;11.90;99.90
45339;DHT22;31071;51.478;5.710;2022-07-04T01:57:21;11.80;99.90
45339;DHT22;31071;51.478;5.710;2022-07-04T01:59:47;11.90;99.90
45339;DHT22;31071;51.478;5.710;2022-07-04T02:02:31;11.90;99.90
45339;DHT22;31071;51.478;5.710;2022-07-04T02:04:57;11.70;99.90
45339;DHT22;31071;51.478;5.710;2022-07-04T02:07:23;11.70;99.90
45339;DHT22;31071;51.478;5.710;2022-07-04T02:09:48;11.70;99.90
45339;DHT22;31071;51.478;5.710;2022-07-04T02:12:14;11.70;99.90
45339;DHT22;31071;51.478;5.710;2022-07-04T02:14:59;11.60;99.90
45339;DHT22;31071;51.478;5.710;2022-07-04T02:17:25;11.60;99.90
45339;DHT22;31071;51.478;5.710;2022-07-04T02:19:51;11.60;99.90
45339;DHT22;31071;51.478;5.710;2022-07-04T02:22:16;11.60;99.90
45339;DHT22;31071;51.478;5.710;2022-07-04T02:24:42;11.70;99.90
45339;DHT22;31071;51.478;5.710;2022-07-04T02:27:07;11.60;99.90
45339;DHT22;31071;51.478;5.710;2022-07-04T02:29:34;11.50;99.90
45339;DHT22;31071;51.478;5.710;2022-07-04T02:32:00;11.50;99.90
45339;DHT22;31071;51.478;5.710;2022-07-04T02:34:33;11.50;99.90
45339;DHT22;31071;51.478;5.710;2022-07-04T02:36:59;11.60;99.90
45339;DHT22;31071;51.478;5.710;2022-07-04T02:39:25;11.60;99.90
45339;DHT22;31071;51.478;5.710;2022-07-04T02:41:51;11.50;99.90
45339;DHT22;31071;51.478;5.710;2022-07-04T02:44:16;11.40;99.90
45339;DHT22;31071;51.478;5.710;2022-07-04T02:46:42;11.40;99.90
45339;DHT22;31071;51.478;5.710;2022-07-04T02:49:08;11.40;99.90
45339;DHT22;31071;51.478;5.710;2022-07-04T02:51:33;11.30;99.90
45339;DHT22;31071;51.478;5.710;2022-07-04T02:54:00;11.20;99.90
45339;DHT22;31071;51.478;5.710;2022-07-04T02:56:25;11.10;99.90
45339;DHT22;31071;51.478;5.710;2022-07-04T02:58:51;11.10;99.90
45339;DHT22;31071;51.478;5.710;2022-07-04T03:01:17;11.20;99.90
45339;DHT22;31071;51.478;5.710;2022-07-04T03:03:45;11.30;99.90
45339;DHT22;31071;51.478;5.710;2022-07-04T03:06:11;11.20;99.90
45339;DHT22;31071;51.478;5.710;2022-07-04T03:08:38;11.20;99.90
45339;DHT22;31071;51.478;5.710;2022-07-04T03:11:04;11.30;99.90
45339;DHT22;31071;51.478;5.710;2022-07-04T03:13:30;11.40;99.90
45339;DHT22;31071;51.478;5.710;2022-07-04T03:15:56;11.50;99.90
45339;DHT22;31071;51.478;5.710;2022-07-04T03:18:22;11.40;99.90
45339;DHT22;31071;51.478;5.710;2022-07-04T03:20:47;11.50;99.90
45339;DHT22;31071;51.478;5.710;2022-07-04T03:23:13;11.60;99.90
45339;DHT22;31071;51.478;5.710;2022-07-04T03:25:40;11.80;99.90
45339;DHT22;31071;51.478;5.710;2022-07-04T03:28:06;11.80;99.90
45339;DHT22;31071;51.478;5.710;2022-07-04T03:30:32;11.90;99.90
45339;DHT22;31071;51.478;5.710;2022-07-04T03:32:58;12.00;99.90
45339;DHT22;31071;51.478;5.710;2022-07-04T03:35:23;12.10;99.90
45339;DHT22;31071;51.478;5.710;2022-07-04T03:37:49;12.20;99.90
45339;DHT22;31071;51.478;5.710;2022-07-04T03:40:16;12.30;99.90
45339;DHT22;31071;51.478;5.710;2022-07-04T03:42:42;12.40;99.90
45339;DHT22;31071;51.478;5.710;2022-07-04T03:45:07;12.40;99.90
45339;DHT22;31071;51.478;5.710;2022-07-04T03:47:33;12.50;99.90
45339;DHT22;31071;51.478;5.710;2022-07-04T03:49:59;12.50;99.90
45339;DHT22;31071;51.478;5.710;2022-07-04T03:52:24;12.60;99.90
45339;DHT22;31071;51.478;5.710;2022-07-04T03:54:51;12.60;99.90
45339;DHT22;31071;51.478;5.710;2022-07-04T03:57:17;12.60;99.90
45339;DHT22;31071;51.478;5.710;2022-07-04T03:59:42;12.60;99.90
45339;DHT22;31071;51.478;5.710;2022-07-04T04:02:08;12.60;99.90
45339;DHT22;31071;51.478;5.710;2022-07-04T04:04:34;12.60;99.90
45339;DHT22;31071;51.478;5.710;2022-07-04T04:07:30;12.60;99.90
45339;DHT22;31071;51.478;5.710;2022-07-04T04:09:55;12.60;99.90
45339;DHT22;31071;51.478;5.710;2022-07-04T04:12:21;12.60;99.90
45339;DHT22;31071;51.478;5.710;2022-07-04T04:14:46;12.60;99.90
45339;DHT22;31071;51.478;5.710;2022-07-04T04:17:12;12.70;99.90
45339;DHT22;31071;51.478;5.710;2022-07-04T04:19:38;12.60;99.90
45339;DHT22;31071;51.478;5.710;2022-07-04T04:22:03;12.70;99.90
45339;DHT22;31071;51.478;5.710;2022-07-04T04:24:29;12.70;99.90
45339;DHT22;31071;51.478;5.710;2022-07-04T04:26:54;12.70;99.90
45339;DHT22;31071;51.478;5.710;2022-07-04T04:29:20;12.80;99.90
45339;DHT22;31071;51.478;5.710;2022-07-04T04:31:45;12.90;99.90
45339;DHT22;31071;51.478;5.710;2022-07-04T04:34:11;13.00;99.90
45339;DHT22;31071;51.478;5.710;2022-07-04T04:36:36;13.10;99.90
45339;DHT22;31071;51.478;5.710;2022-07-04T04:39:02;13.10;99.90
45339;DHT22;31071;51.478;5.710;2022-07-04T04:41:28;13.20;99.90
45339;DHT22;31071;51.478;5.710;2022-07-04T04:43:55;13.20;99.90
45339;DHT22;31071;51.478;5.710;2022-07-04T04:46:21;13.30;99.90
45339;DHT22;31071;51.478;5.710;2022-07-04T04:48:47;13.40;99.90
45339;DHT22;31071;51.478;5.710;2022-07-04T04:51:12;13.50;99.90
45339;DHT22;31071;51.478;5.710;2022-07-04T04:53:38;13.60;99.90
45339;DHT22;31071;51.478;5.710;2022-07-04T04:56:03;13.70;99.90
45339;DHT22;31071;51.478;5.710;2022-07-04T04:58:29;13.80;99.90
45339;DHT22;31071;51.478;5.710;2022-07-04T05:00:54;13.80;99.90
45339;DHT22;31071;51.478;5.710;2022-07-04T05:03:20;13.90;99.90
45339;DHT22;31071;51.478;5.710;2022-07-04T05:05:45;14.00;99.90
45339;DHT22;31071;51.478;5.710;2022-07-04T05:08:12;14.10;99.90
45339;DHT22;31071;51.478;5.710;2022-07-04T05:10:38;14.20;99.90
45339;DHT22;31071;51.478;5.710;2022-07-04T05:13:04;14.20;99.90
45339;DHT22;31071;51.478;5.710;2022-07-04T05:15:30;14.30;99.90
45339;DHT22;31071;51.478;5.710;2022-07-04T05:17:55;14.30;99.90
45339;DHT22;31071;51.478;5.710;2022-07-04T05:20:21;14.40;99.90
45339;DHT22;31071;51.478;5.710;2022-07-04T05:22:46;14.50;99.90
45339;DHT22;31071;51.478;5.710;2022-07-04T05:25:12;14.50;99.90
45339;DHT22;31071;51.478;5.710;2022-07-04T05:27:39;14.60;99.90
45339;DHT22;31071;51.478;5.710;2022-07-04T05:30:06;14.70;99.90
45339;DHT22;31071;51.478;5.710;2022-07-04T05:32:32;14.70;99.90
45339;DHT22;31071;51.478;5.710;2022-07-04T05:34:57;14.80;99.90
45339;DHT22;31071;51.478;5.710;2022-07-04T05:37:23;14.90;99.90
45339;DHT22;31071;51.478;5.710;2022-07-04T05:39:49;15.00;99.90
45339;DHT22;31071;51.478;5.710;2022-07-04T05:42:15;15.10;99.90
45339;DHT22;31071;51.478;5.710;2022-07-04T05:44:40;15.20;99.90
45339;DHT22;31071;51.478;5.710;2022-07-04T05:47:06;15.30;99.90
45339;DHT22;31071;51.478;5.710;2022-07-04T05:49:32;15.30;99.90
45339;DHT22;31071;51.478;5.710;2022-07-04T05:51:57;15.40;99.90
45339;DHT22;31071;51.478;5.710;2022-07-04T05:54:24;15.40;99.90
45339;DHT22;31071;51.478;5.710;2022-07-04T05:56:49;15.50;99.90
45339;DHT22;31071;51.478;5.710;2022-07-04T05:59:15;15.60;99.90
45339;DHT22;31071;51.478;5.710;2022-07-04T06:01:40;15.70;99.90
45339;DHT22;31071;51.478;5.710;2022-07-04T06:04:09;15.80;99.90
45339;DHT22;31071;51.478;5.710;2022-07-04T06:06:35;15.90;99.90
45339;DHT22;31071;51.478;5.710;2022-07-04T06:09:00;15.90;99.90
45339;DHT22;31071;51.478;5.710;2022-07-04T06:11:27;16.00;99.90
45339;DHT22;31071;51.478;5.710;2022-07-04T06:13:52;16.10;99.90
45339;DHT22;31071;51.478;5.710;2022-07-04T06:16:18;16.20;99.90
45339;DHT22;31071;51.478;5.710;2022-07-04T06:18:44;16.20;99.90
45339;DHT22;31071;51.478;5.710;2022-07-04T06:21:10;16.30;99.90
45339;DHT22;31071;51.478;5.710;2022-07-04T06:23:36;16.40;99.90
45339;DHT22;31071;51.478;5.710;2022-07-04T06:26:02;16.40;99.90
45339;DHT22;31071;51.478;5.710;2022-07-04T06:28:28;16.50;99.90
45339;DHT22;31071;51.478;5.710;2022-07-04T06:30:56;16.60;99.90
45339;DHT22;31071;51.478;5.710;2022-07-04T06:33:22;16.70;99.90
45339;DHT22;31071;51.478;5.710;2022-07-04T06:35:47;16.80;99.90
45339;DHT22;31071;51.478;5.710;2022-07-04T06:38:23;16.80;99.90
45339;DHT22;31071;51.478;5.710;2022-07-04T06:40:50;17.00;99.90
45339;DHT22;31071;51.478;5.710;2022-07-04T06:43:16;17.00;99.90
45339;DHT22;31071;51.478;5.710;2022-07-04T06:45:41;17.10;99.90
45339;DHT22;31071;51.478;5.710;2022-07-04T06:48:08;17.10;99.90
45339;DHT22;31071;51.478;5.710;2022-07-04T06:50:33;17.20;99.90
45339;DHT22;31071;51.478;5.710;2022-07-04T06:53:00;17.30;99.90
45339;DHT22;31071;51.478;5.710;2022-07-04T06:55:26;17.40;99.90
45339;DHT22;31071;51.478;5.710;2022-07-04T06:57:51;17.50;99.90
45339;DHT22;31071;51.478;5.710;2022-07-04T07:00:17;17.60;99.90
45339;DHT22;31071;51.478;5.710;2022-07-04T07:02:42;17.70;99.90
45339;DHT22;31071;51.478;5.710;2022-07-04T07:05:08;17.70;99.90
45339;DHT22;31071;51.478;5.710;2022-07-04T07:07:34;17.70;99.90
45339;DHT22;31071;51.478;5.710;2022-07-04T07:10:00;17.90;99.90
45339;DHT22;31071;51.478;5.710;2022-07-04T07:12:26;17.90;99.90
45339;DHT22;31071;51.478;5.710;2022-07-04T07:14:52;18.00;99.90
45339;DHT22;31071;51.478;5.710;2022-07-04T07:17:18;18.00;99.90
45339;DHT22;31071;51.478;5.710;2022-07-04T07:19:43;18.10;99.90
45339;DHT22;31071;51.478;5.710;2022-07-04T07:22:10;18.20;99.90
45339;DHT22;31071;51.478;5.710;2022-07-04T07:24:36;18.30;99.90
45339;DHT22;31071;51.478;5.710;2022-07-04T07:27:02;18.30;99.90
45339;DHT22;31071;51.478;5.710;2022-07-04T07:29:27;18.40;99.90
45339;DHT22;31071;51.478;5.710;2022-07-04T07:31:53;18.40;99.90
45339;DHT22;31071;51.478;5.710;2022-07-04T07:34:20;18.50;99.90
45339;DHT22;31071;51.478;5.710;2022-07-04T07:36:46;18.70;99.50
45339;DHT22;31071;51.478;5.710;2022-07-04T07:39:11;18.70;98.80
45339;DHT22;31071;51.478;5.710;2022-07-04T07:41:37;18.90;98.80
45339;DHT22;31071;51.478;5.710;2022-07-04T07:44:03;19.10;98.70
45339;DHT22;31071;51.478;5.710;2022-07-04T07:46:28;19.30;98.40
45339;DHT22;31071;51.478;5.710;2022-07-04T07:48:54;19.40;96.70
45339;DHT22;31071;51.478;5.710;2022-07-04T07:51:19;19.50;96.70
45339;DHT22;31071;51.478;5.710;2022-07-04T07:53:45;19.60;97.00
45339;DHT22;31071;51.478;5.710;2022-07-04T07:56:10;19.70;96.30
45339;DHT22;31071;51.478;5.710;2022-07-04T07:58:36;19.70;96.60
45339;DHT22;31071;51.478;5.710;2022-07-04T08:01:02;19.80;96.20
45339;DHT22;31071;51.478;5.710;2022-07-04T08:03:28;19.90;96.10
45339;DHT22;31071;51.478;5.710;2022-07-04T08:06:12;19.70;95.90
45339;DHT22;31071;51.478;5.710;2022-07-04T08:08:38;19.80;97.00
45339;DHT22;31071;51.478;5.710;2022-07-04T08:11:04;19.90;96.50
45339;DHT22;31071;51.478;5.710;2022-07-04T08:13:31;19.90;96.50
45339;DHT22;31071;51.478;5.710;2022-07-04T08:15:57;20.10;96.10
45339;DHT22;31071;51.478;5.710;2022-07-04T08:18:22;20.20;95.40
45339;DHT22;31071;51.478;5.710;2022-07-04T08:20:49;20.60;95.00
45339;DHT22;31071;51.478;5.710;2022-07-04T08:23:15;20.60;94.40
45339;DHT22;31071;51.478;5.710;2022-07-04T08:25:40;20.80;93.90
45339;DHT22;31071;51.478;5.710;2022-07-04T08:28:06;20.90;93.50
45339;DHT22;31071;51.478;5.710;2022-07-04T08:30:32;20.90;93.50
45339;DHT22;31071;51.478;5.710;2022-07-04T08:32:57;20.90;93.30
45339;DHT22;31071;51.478;5.710;2022-07-04T08:35:23;21.10;92.60
45339;DHT22;31071;51.478;5.710;2022-07-04T08:37:48;21.10;92.80
45339;DHT22;31071;51.478;5.710;2022-07-04T08:40:20;21.10;93.10
45339;DHT22;31071;51.478;5.710;2022-07-04T08:42:46;21.10;92.60
45339;DHT22;31071;51.478;5.710;2022-07-04T08:45:13;21.10;92.20
45339;DHT22;31071;51.478;5.710;2022-07-04T08:47:41;21.00;92.20
45339;DHT22;31071;51.478;5.710;2022-07-04T08:50:12;20.90;92.60
45339;DHT22;31071;51.478;5.710;2022-07-04T08:52:43;20.70;92.70
45339;DHT22;31071;51.478;5.710;2022-07-04T08:55:12;20.80;92.50
45339;DHT22;31071;51.478;5.710;2022-07-04T08:57:57;21.10;92.90
45339;DHT22;31071;51.478;5.710;2022-07-04T09:00:42;21.20;92.10
45339;DHT22;31071;51.478;5.710;2022-07-04T09:03:09;21.30;93.00
45339;DHT22;31071;51.478;5.710;2022-07-04T09:05:35;21.50;92.20
45339;DHT22;31071;51.478;5.710;2022-07-04T09:08:02;21.60;91.60
45339;DHT22;31071;51.478;5.710;2022-07-04T09:10:29;21.90;91.10
45339;DHT22;31071;51.478;5.710;2022-07-04T09:12:55;21.90;90.50
45339;DHT22;31071;51.478;5.710;2022-07-04T09:15:20;22.20;90.50
45339;DHT22;31071;51.478;5.710;2022-07-04T09:17:46;22.60;89.80
45339;DHT22;31071;51.478;5.710;2022-07-04T09:20:14;22.70;89.00
45339;DHT22;31071;51.478;5.710;2022-07-04T09:22:40;22.50;88.60
45339;DHT22;31071;51.478;5.710;2022-07-04T09:25:06;22.50;87.90
45339;DHT22;31071;51.478;5.710;2022-07-04T09:27:37;22.50;86.90
45339;DHT22;31071;51.478;5.710;2022-07-04T09:30:04;22.50;87.80
45339;DHT22;31071;51.478;5.710;2022-07-04T09:32:41;22.70;87.10
45339;DHT22;31071;51.478;5.710;2022-07-04T09:35:20;22.60;86.70
45339;DHT22;31071;51.478;5.710;2022-07-04T09:37:48;22.70;86.80
45339;DHT22;31071;51.478;5.710;2022-07-04T09:40:29;22.70;86.60
45339;DHT22;31071;51.478;5.710;2022-07-04T09:42:59;22.80;83.10
45339;DHT22;31071;51.478;5.710;2022-07-04T09:45:26;22.90;83.80
45339;DHT22;31071;51.478;5.710;2022-07-04T09:47:57;23.20;82.30
45339;DHT22;31071;51.478;5.710;2022-07-04T09:50:24;23.20;82.30
45339;DHT22;31071;51.478;5.710;2022-07-04T09:52:58;23.60;81.40
45339;DHT22;31071;51.478;5.710;2022-07-04T09:55:30;24.10;79.40
45339;DHT22;31071;51.478;5.710;2022-07-04T09:58:01;24.40;75.50
45339;DHT22;31071;51.478;5.710;2022-07-04T10:00:32;25.20;72.70
45339;DHT22;31071;51.478;5.710;2022-07-04T10:03:19;25.40;70.50
45339;DHT22;31071;51.478;5.710;2022-07-04T10:05:46;25.60;68.30
45339;DHT22;31071;51.478;5.710;2022-07-04T10:08:12;25.20;67.50
45339;DHT22;31071;51.478;5.710;2022-07-04T10:10:38;24.50;68.60
45339;DHT22;31071;51.478;5.710;2022-07-04T10:13:10;24.20;69.60
45339;DHT22;31071;51.478;5.710;2022-07-04T10:15:38;24.10;69.90
45339;DHT22;31071;51.478;5.710;2022-07-04T10:18:04;24.10;71.00
45339;DHT22;31071;51.478;5.710;2022-07-04T10:20:30;24.10;71.10
45339;DHT22;31071;51.478;5.710;2022-07-04T10:22:57;24.00;70.80
45339;DHT22;31071;51.478;5.710;2022-07-04T10:25:23;23.80;70.90
45339;DHT22;31071;51.478;5.710;2022-07-04T10:27:49;23.70;70.60
45339;DHT22;31071;51.478;5.710;2022-07-04T10:30:21;23.90;71.60
45339;DHT22;31071;51.478;5.710;2022-07-04T10:32:48;24.20;69.70
45339;DHT22;31071;51.478;5.710;2022-07-04T10:35:17;24.50;68.80
45339;DHT22;31071;51.478;5.710;2022-07-04T10:38:00;24.70;69.30
45339;DHT22;31071;51.478;5.710;2022-07-04T10:40:42;25.10;68.00
45339;DHT22;31071;51.478;5.710;2022-07-04T10:48:31;25.00;66.90
45339;DHT22;31071;51.478;5.710;2022-07-04T10:51:05;24.50;67.30
45339;DHT22;31071;51.478;5.710;2022-07-04T10:53:32;24.20;67.50
45339;DHT22;31071;51.478;5.710;2022-07-04T10:58:46;23.90;68.50
45339;DHT22;31071;51.478;5.710;2022-07-04T11:01:17;24.00;67.60
45339;DHT22;31071;51.478;5.710;2022-07-04T11:09:18;24.20;67.80
45339;DHT22;31071;51.478;5.710;2022-07-04T11:12:01;25.40;65.00
45339;DHT22;31071;51.478;5.710;2022-07-04T11:14:42;25.70;64.10
45339;DHT22;31071;51.478;5.710;2022-07-04T11:17:20;25.20;63.70
45339;DHT22;31071;51.478;5.710;2022-07-04T11:19:46;25.30;63.30
45339;DHT22;31071;51.478;5.710;2022-07-04T11:22:13;25.60;63.00
45339;DHT22;31071;51.478;5.710;2022-07-04T11:24:54;26.30;61.90
45339;DHT22;31071;51.478;5.710;2022-07-04T11:27:21;26.70;60.80
45339;DHT22;31071;51.478;5.710;2022-07-04T11:29:51;27.40;60.10
45339;DHT22;31071;51.478;5.710;2022-07-04T11:32:18;27.80;56.80
45339;DHT22;31071;51.478;5.710;2022-07-04T11:34:43;27.40;57.50
45339;DHT22;31071;51.478;5.710;2022-07-04T11:37:10;27.60;57.30
45339;DHT22;31071;51.478;5.710;2022-07-04T11:39:39;26.80;56.20
45339;DHT22;31071;51.478;5.710;2022-07-04T11:42:05;26.50;58.50
45339;DHT22;31071;51.478;5.710;2022-07-04T11:44:49;26.60;56.20
45339;DHT22;31071;51.478;5.710;2022-07-04T11:47:36;26.90;57.10
45339;DHT22;31071;51.478;5.710;2022-07-04T11:50:13;27.90;56.90
45339;DHT22;31071;51.478;5.710;2022-07-04T11:52:43;28.90;54.50
45339;DHT22;31071;51.478;5.710;2022-07-04T11:55:17;29.20;51.60
45339;DHT22;31071;51.478;5.710;2022-07-04T11:57:45;29.50;50.50
45339;DHT22;31071;51.478;5.710;2022-07-04T12:00:16;28.30;51.60
45339;DHT22;31071;51.478;5.710;2022-07-04T12:02:43;28.50;52.60
45339;DHT22;31071;51.478;5.710;2022-07-04T12:05:10;28.70;51.20
45339;DHT22;31071;51.478;5.710;2022-07-04T12:07:38;28.20;52.40
45339;DHT22;31071;51.478;5.710;2022-07-04T12:10:30;27.80;51.90
45339;DHT22;31071;51.478;5.710;2022-07-04T12:15:24;26.80;53.30
45339;DHT22;31071;51.478;5.710;2022-07-04T12:17:55;26.00;54.70
45339;DHT22;31071;51.478;5.710;2022-07-04T12:20:22;25.60;55.80
45339;DHT22;31071;51.478;5.710;2022-07-04T12:22:59;26.50;54.40
45339;DHT22;31071;51.478;5.710;2022-07-04T12:25:33;27.50;52.80
45339;DHT22;31071;51.478;5.710;2022-07-04T12:30:34;28.40;49.90
45339;DHT22;31071;51.478;5.710;2022-07-04T12:33:05;30.10;47.50
45339;DHT22;31071;51.478;5.710;2022-07-04T12:35:47;30.00;48.50
45339;DHT22;31071;51.478;5.710;2022-07-04T12:38:20;27.90;54.40
45339;DHT22;31071;51.478;5.710;2022-07-04T12:43:20;25.90;59.90
45339;DHT22;31071;51.478;5.710;2022-07-04T12:45:51;25.20;61.90
45339;DHT22;31071;51.478;5.710;2022-07-04T12:48:19;24.80;63.80
45339;DHT22;31071;51.478;5.710;2022-07-04T12:50:45;24.40;64.30
45339;DHT22;31071;51.478;5.710;2022-07-04T12:53:11;24.10;66.20
45339;DHT22;31071;51.478;5.710;2022-07-04T12:55:40;24.10;66.00
45339;DHT22;31071;51.478;5.710;2022-07-04T12:58:06;25.20;62.20
45339;DHT22;31071;51.478;5.710;2022-07-04T13:00:31;27.00;58.70
45339;DHT22;31071;51.478;5.710;2022-07-04T13:02:57;27.50;56.80
45339;DHT22;31071;51.478;5.710;2022-07-04T13:05:22;28.40;54.10
45339;DHT22;31071;51.478;5.710;2022-07-04T13:07:48;28.30;53.60
45339;DHT22;31071;51.478;5.710;2022-07-04T13:10:13;27.50;55.50
45339;DHT22;31071;51.478;5.710;2022-07-04T13:12:39;27.50;54.10
45339;DHT22;31071;51.478;5.710;2022-07-04T13:15:05;28.80;52.20
45339;DHT22;31071;51.478;5.710;2022-07-04T13:17:31;30.30;50.00
45339;DHT22;31071;51.478;5.710;2022-07-04T13:19:56;31.50;46.70
45339;DHT22;31071;51.478;5.710;2022-07-04T13:22:23;30.90;46.10
45339;DHT22;31071;51.478;5.710;2022-07-04T13:24:51;29.60;48.50
45339;DHT22;31071;51.478;5.710;2022-07-04T13:27:17;28.80;49.00
45339;DHT22;31071;51.478;5.710;2022-07-04T13:29:43;29.50;48.80
45339;DHT22;31071;51.478;5.710;2022-07-04T13:32:12;30.00;48.50
45339;DHT22;31071;51.478;5.710;2022-07-04T13:34:45;30.80;47.10
45339;DHT22;31071;51.478;5.710;2022-07-04T13:37:10;31.60;46.40
45339;DHT22;31071;51.478;5.710;2022-07-04T13:39:36;32.40;44.90
45339;DHT22;31071;51.478;5.710;2022-07-04T13:42:01;32.50;44.60
45339;DHT22;31071;51.478;5.710;2022-07-04T13:44:30;31.00;44.30
45339;DHT22;31071;51.478;5.710;2022-07-04T13:46:56;29.20;47.60
45339;DHT22;31071;51.478;5.710;2022-07-04T13:49:23;28.90;48.90
45339;DHT22;31071;51.478;5.710;2022-07-04T13:51:49;28.40;49.80
45339;DHT22;31071;51.478;5.710;2022-07-04T13:54:16;28.00;50.00
45339;DHT22;31071;51.478;5.710;2022-07-04T13:56:42;28.30;50.00
45339;DHT22;31071;51.478;5.710;2022-07-04T13:59:08;28.00;50.40
45339;DHT22;31071;51.478;5.710;2022-07-04T14:01:35;28.20;49.70
45339;DHT22;31071;51.478;5.710;2022-07-04T14:04:01;29.20;48.60
45339;DHT22;31071;51.478;5.710;2022-07-04T14:06:26;29.90;45.40
45339;DHT22;31071;51.478;5.710;2022-07-04T14:08:52;29.70;45.00
45339;DHT22;31071;51.478;5.710;2022-07-04T14:11:18;30.10;45.10
45339;DHT22;31071;51.478;5.710;2022-07-04T14:13:44;30.00;44.80
45339;DHT22;31071;51.478;5.710;2022-07-04T14:16:09;29.30;46.40
45339;DHT22;31071;51.478;5.710;2022-07-04T14:18:35;28.70;47.20
45339;DHT22;31071;51.478;5.710;2022-07-04T14:21:01;28.80;47.20
45339;DHT22;31071;51.478;5.710;2022-07-04T14:23:26;28.40;49.40
45339;DHT22;31071;51.478;5.710;2022-07-04T14:26:09;28.40;49.40
45339;DHT22;31071;51.478;5.710;2022-07-04T14:28:35;28.50;50.10
45339;DHT22;31071;51.478;5.710;2022-07-04T14:31:01;28.50;49.50
45339;DHT22;31071;51.478;5.710;2022-07-04T14:33:26;28.30;50.40
45339;DHT22;31071;51.478;5.710;2022-07-04T14:35:52;27.60;51.30
45339;DHT22;31071;51.478;5.710;2022-07-04T14:38:18;27.60;51.10
45339;DHT22;31071;51.478;5.710;2022-07-04T14:40:44;27.70;50.20
45339;DHT22;31071;51.478;5.710;2022-07-04T14:43:12;28.10;50.30
45339;DHT22;31071;51.478;5.710;2022-07-04T14:45:38;27.80;50.40
45339;DHT22;31071;51.478;5.710;2022-07-04T14:48:04;27.40;50.50
45339;DHT22;31071;51.478;5.710;2022-07-04T14:50:36;27.00;51.20
45339;DHT22;31071;51.478;5.710;2022-07-04T14:53:01;26.40;52.30
45339;DHT22;31071;51.478;5.710;2022-07-04T14:55:27;26.40;53.30
45339;DHT22;31071;51.478;5.710;2022-07-04T14:57:53;26.70;52.50
45339;DHT22;31071;51.478;5.710;2022-07-04T15:00:18;26.80;53.30
45339;DHT22;31071;51.478;5.710;2022-07-04T15:02:44;27.00;51.70
45339;DHT22;31071;51.478;5.710;2022-07-04T15:05:14;27.40;51.90
45339;DHT22;31071;51.478;5.710;2022-07-04T15:07:39;26.90;51.30
45339;DHT22;31071;51.478;5.710;2022-07-04T15:10:06;26.40;53.10
45339;DHT22;31071;51.478;5.710;2022-07-04T15:12:34;26.20;53.00
45339;DHT22;31071;51.478;5.710;2022-07-04T15:15:00;26.30;53.40
45339;DHT22;31071;51.478;5.710;2022-07-04T15:17:26;26.70;52.60
45339;DHT22;31071;51.478;5.710;2022-07-04T15:19:51;26.80;51.70
45339;DHT22;31071;51.478;5.710;2022-07-04T15:22:36;26.70;51.90
45339;DHT22;31071;51.478;5.710;2022-07-04T15:25:20;26.80;53.00
45339;DHT22;31071;51.478;5.710;2022-07-04T15:27:46;27.20;52.70
45339;DHT22;31071;51.478;5.710;2022-07-04T15:30:12;27.20;51.10
45339;DHT22;31071;51.478;5.710;2022-07-04T15:32:40;26.90;50.50
45339;DHT22;31071;51.478;5.710;2022-07-04T15:35:06;26.40;51.40
45339;DHT22;31071;51.478;5.710;2022-07-04T15:37:32;26.00;52.20
45339;DHT22;31071;51.478;5.710;2022-07-04T15:39:58;26.10;52.80
45339;DHT22;31071;51.478;5.710;2022-07-04T15:42:23;26.10;52.20
45339;DHT22;31071;51.478;5.710;2022-07-04T15:44:49;25.80;53.10
45339;DHT22;31071;51.478;5.710;2022-07-04T15:47:15;26.00;52.40
45339;DHT22;31071;51.478;5.710;2022-07-04T15:49:41;26.30;52.40
45339;DHT22;31071;51.478;5.710;2022-07-04T15:52:06;26.20;53.60